Latest Weather Observations for Forbes

IDN60801

Issued at 7:05 am EDT Monday 24 November 2014 (issued every 30 minutes, with the page automatically refreshed every 10 minutes)

About weather observations | Map of weather stations | Latest weather observations for NSW | Other Formats
Station Details ID: 065103 Name: FORBES AIRPORT AWS Lat: -33.36 Lon: 147.92 Height: 230.4 m
Data from the previous 72 hours. | See also: Recent months at Forbes
Date/Time
EDT
Temp
°C
App
Temp
°C
Dew
Point
Rel
Hum
%
Delta-T
°C
Wind Press
QNH
hPa
Press
MSL
hPa
Rain
since 9 am
mm
Dir
 
Spd
km/h
Gust
km/h
Spd
kts
Gust
kts
24/07:00am 26.2 24.8 13.3 45 7.6 SE 13 17 7 9 1012.5 1011.7 0.0
24/06:30am 25.9 24.4 13.1 45 7.5 SE 13 17 7 9 1012.3 1011.5 0.0
24/06:00am 25.8 24.4 13.3 46 7.4 SSE 13 19 7 10 1012.3 1011.5 0.0
24/05:30am 25.5 24.7 13.0 46 7.3 S 9 11 5 6 1012.2 1011.4 0.0
24/05:00am 26.7 24.7 12.7 42 8.2 ESE 15 20 8 11 1011.5 1010.7 0.0
24/04:30am 27.0 24.3 13.0 42 8.3 ESE 19 24 10 13 1011.1 1010.3 0.0
24/04:00am 26.6 26.3 13.3 43 7.9 SE 7 13 4 7 1011.6 1010.8 0.0
24/03:30am 25.8 23.3 14.0 48 7.1 E 20 24 11 13 1011.6 1010.8 0.0
24/03:00am 25.4 23.3 14.8 52 6.4 NE 19 24 10 13 1013.4 1012.5 0.0
24/02:30am 26.3 26.2 13.8 46 7.5 ENE 7 15 4 8 1013.0 1012.2 0.0
24/02:00am 26.3 25.1 14.1 47 7.3 ESE 13 15 7 8 1013.2 1012.4 0.0
24/01:30am 26.6 26.2 14.0 46 7.6 SSW 9 13 5 7 1014.3 1013.5 0.0
24/01:00am 25.6 24.9 14.4 50 6.7 W 11 13 6 7 1014.3 1013.5 0.0
24/12:30am 26.5 27.5 13.3 44 7.8 CALM 0 7 0 4 1013.1 1012.3 0.0
24/12:00am 28.9 27.2 12.3 36 9.8 ESE 13 17 7 9 1012.2 1011.4 0.0
 
Date/Time
EDT
Temp
°C
App
Temp
°C
Dew
Point
Rel
Hum
%
Delta-T
°C
Wind Press
QNH
hPa
Press
MSL
hPa
Rain
since 9 am
mm
Dir
 
Spd
km/h
Gust
km/h
Spd
kts
Gust
kts
23/11:30pm 29.9 26.8 12.3 33 10.4 SSE 20 30 11 16 1011.7 1010.9 0.0
23/11:00pm 29.9 27.2 12.8 35 10.2 SSE 19 24 10 13 1012.5 1011.7 0.0
23/10:30pm 30.8 27.3 12.2 32 11.0 S 22 30 12 16 1012.4 1011.6 0.0
23/10:00pm 29.5 27.7 13.3 37 9.7 SW 15 20 8 11 1012.4 1011.6 0.0
23/09:30pm 27.7 26.1 14.0 43 8.3 SW 15 17 8 9 1011.8 1011.0 0.0
23/09:00pm 26.0 26.1 13.8 47 7.3 WNW 6 7 3 4 1011.0 1010.2 0.0
23/08:30pm 29.0 27.4 12.8 36 9.6 ENE 13 17 7 9 1010.3 1009.5 0.0
23/08:00pm 30.2 28.7 13.0 34 10.3 E 13 17 7 9 1010.2 1009.3 0.0
23/07:30pm 33.1 31.3 12.1 27 12.6 E 13 17 7 9 1009.9 1009.0 0.0
23/07:00pm 34.0 32.5 11.8 26 13.3 SE 11 15 6 8 1009.6 1008.7 0.0
23/06:30pm 34.7 31.9 11.2 24 13.9 S 17 22 9 12 1009.2 1008.3 0.0
23/06:00pm 36.5 32.9 12.0 23 14.8 S 22 30 12 16 1009.1 1008.2 0.0
23/05:30pm 37.0 33.0 11.8 22 15.2 SSW 24 37 13 20 1009.3 1008.4 0.0
23/05:00pm 35.3 30.7 12.3 25 13.9 SW 28 35 15 19 1009.3 1008.4 0.0
23/04:55pm 36.1 31.7 13.0 25 14.2 SW 28 33 15 18 1009.3 1008.4 0.0
23/04:30pm 31.1 25.5 13.4 34 10.7 W 35 56 19 30 1010.3 1009.5 0.0
23/04:04pm 27.8 20.2 14.8 45 7.9 WSW 48 76 26 41 1009.4 1008.5 0.0
23/04:00pm 33.5 23.6 12.5 28 12.7 W 56 78 30 42 1009.0 1008.1 0.0
23/03:54pm 34.7 23.9 11.2 24 13.9 WSW 59 78 32 42 1008.2 1007.4 0.0
23/03:51pm 35.9 31.3 12.2 24 14.3 W 28 69 15 37 1007.8 1007.0 0.0
23/03:30pm 34.1 36.2 20.1 43 9.4 NW 9 24 5 13 1007.4 1006.6 0.0
23/03:20pm 31.3 27.0 13.1 33 11.0 WNW 28 41 15 22 1008.1 1007.3 0.0
23/03:15pm 33.5 22.6 10.8 25 13.3 NNW 59 80 32 43 1008.1 1007.3 0.0
23/03:14pm 33.7 20.6 9.7 23 13.9 NW 69 80 37 43 1007.8 1007.0 0.0
23/03:13pm 36.8 30.4 9.4 19 16.0 WNW 33 80 18 43 1007.4 1006.6 0.0
23/03:12pm 40.6 34.3 5.7 12 19.6 WNW 28 46 15 25 1007.6 1006.8 0.0
23/03:00pm 42.5 37.2 3.0 9 21.6 WNW 20 33 11 18 1007.6 1006.8 0.0
23/02:30pm 43.5 36.8 3.7 9 22.0 WNW 28 35 15 19 1008.2 1007.4 0.0
23/02:19pm 43.2 36.5 3.5 9 21.9 W 28 46 15 25 1008.3 1007.5 0.0
23/02:00pm 42.7 34.6 3.1 9 21.7 WNW 35 46 19 25 1008.6 1007.8 0.0
23/01:42pm 43.1 35.6 3.4 9 21.8 NW 32 50 17 27 1008.9 1008.0 0.0
23/01:30pm 42.3 35.1 2.8 9 21.4 NW 30 39 16 21 1009.1 1008.2 0.0
23/01:00pm 42.3 34.8 4.3 10 21.1 WNW 33 70 18 38 1009.5 1008.6 0.0
23/12:58pm 42.0 34.6 4.1 10 20.9 WNW 32 70 17 38 1009.3 1008.4 0.0
23/12:55pm 41.3 34.6 3.6 10 20.6 W 28 32 15 17 1009.5 1008.6 0.0
23/12:38pm 41.8 33.2 2.5 9 21.2 NW 37 56 20 30 1009.6 1008.7 0.0
23/12:30pm 41.9 34.3 4.0 10 20.9 WNW 33 50 18 27 1009.8 1008.9 0.0
23/12:22pm 41.2 33.7 3.5 10 20.6 WNW 32 39 17 21 1009.9 1009.0 0.0
23/12:01pm 41.1 32.3 3.4 10 20.5 NNW 39 57 21 31 1010.0 1009.1 0.0
23/12:00pm 41.3 32.5 3.6 10 20.6 NNW 39 56 21 30 1010.0 1009.1 0.0
23/11:30am 40.8 31.9 3.2 10 20.4 NNW 39 54 21 29 1010.2 1009.3 0.0
23/11:00am 39.5 30.1 2.2 10 19.8 N 41 54 22 29 1010.3 1009.5 0.0
23/10:30am 39.7 30.9 3.7 11 19.5 N 39 54 21 29 1010.2 1009.3 0.0
23/10:00am 38.6 30.3 4.1 12 18.8 N 37 46 20 25 1010.0 1009.1 0.0
23/09:30am 37.6 30.9 5.6 14 17.7 N 30 37 16 20 1010.2 1009.3 0.0
23/09:00am 34.6 29.5 6.0 17 15.7 N 22 30 12 16 1010.3 1009.5 0.0
23/08:30am 31.9 27.0 6.9 21 13.7 N 22 28 12 15 1010.2 1009.3 0.0
23/08:00am 29.5 26.4 7.4 25 12.1 N 13 15 7 8 1010.2 1009.3 0.0
23/07:30am 26.3 24.7 7.8 31 10.0 ENE 6 9 3 5 1010.1 1009.2 0.0
23/07:00am 23.1 21.7 8.8 40 7.7 NE 6 9 3 5 1009.9 1009.0 0.0
23/06:30am 20.3 17.7 9.2 49 5.9 E 13 15 7 8 1009.7 1008.8 0.0
23/06:00am 20.2 18.2 8.5 47 6.2 ESE 9 13 5 7 1009.5 1008.6 0.0
23/05:30am 20.1 18.5 7.8 45 6.4 E 6 9 3 5 1009.6 1008.7 0.0
23/05:00am 21.7 19.4 7.5 40 7.4 S 9 11 5 6 1009.3 1008.4 0.0
23/04:30am 22.9 18.8 7.8 38 8.0 NE 19 20 10 11 1009.1 1008.2 0.0
23/04:00am 21.6 19.4 7.8 41 7.3 NNW 9 13 5 7 1010.1 1009.2 0.0
23/03:30am 24.7 21.5 6.9 32 9.4 SE 13 19 7 10 1009.9 1009.0 0.0
23/03:00am 24.8 20.5 7.9 34 9.1 SSE 20 26 11 14 1010.3 1009.5 0.0
23/02:30am 23.2 18.9 7.7 37 8.2 SSW 20 30 11 16 1011.7 1010.9 0.0
23/02:00am 18.5 17.2 9.3 55 4.9 W 6 9 3 5 1010.5 1009.7 0.0
23/01:30am 20.0 18.9 10.1 53 5.4 SE 6 7 3 4 1010.1 1009.2 0.0
23/01:00am 20.7 18.3 8.7 46 6.4 S 11 13 6 7 1010.5 1009.7 0.0
23/12:30am 20.5 18.8 7.5 43 6.8 NW 6 7 3 4 1010.8 1010.0 0.0
23/12:00am 22.8 20.7 8.1 39 7.8 SSE 9 11 5 6 1010.6 1009.8 0.0
 
Date/Time
EDT
Temp
°C
App
Temp
°C
Dew
Point
Rel
Hum
%
Delta-T
°C
Wind Press
QNH
hPa
Press
MSL
hPa
Rain
since 9 am
mm
Dir
 
Spd
km/h
Gust
km/h
Spd
kts
Gust
kts
22/11:30pm 23.6 22.4 8.1 37 8.3 W 4 9 2 5 1011.2 1010.4 0.0
22/11:00pm 24.0 21.4 7.6 35 8.7 E 11 13 6 7 1011.2 1010.4 0.0
22/10:30pm 23.7 21.9 9.3 40 7.9 E 9 11 5 6 1011.0 1010.2 0.0
22/10:00pm 24.7 24.5 9.0 37 8.6 CALM 0 0 0 0 1011.2 1010.4 0.0
22/09:30pm 25.0 23.0 8.5 35 9.0 E 9 11 5 6 1010.8 1010.0 0.0
22/09:00pm 27.5 24.8 7.4 28 10.9 SSE 11 13 6 7 1010.7 1009.9 0.0
22/08:30pm 27.6 25.6 6.9 27 11.1 S 7 11 4 6 1010.6 1009.8 0.0
22/08:00pm 31.1 30.1 5.5 20 13.7 CALM 0 0 0 0 1010.1 1009.2 0.0
22/07:30pm 33.2 30.5 5.7 18 14.9 SSW 9 11 5 6 1010.1 1009.2 0.0
22/07:00pm 34.2 31.1 5.7 17 15.5 WSW 11 17 6 9 1009.7 1008.8 0.0
22/06:30pm 34.5 30.4 4.1 15 16.1 WSW 15 22 8 12 1009.2 1008.3 0.0
22/06:00pm 36.2 31.8 4.5 14 17.1 WNW 17 22 9 12 1008.9 1008.0 0.0
22/05:30pm 36.8 33.4 3.9 13 17.6 W 11 22 6 12 1009.1 1008.2 0.0
22/05:00pm 35.6 32.0 5.0 15 16.6 SW 13 20 7 11 1009.3 1008.4 0.0
22/04:30pm 35.6 31.1 4.0 14 16.9 WSW 17 24 9 13 1009.7 1008.8 0.0
22/04:00pm 35.8 30.3 4.2 14 17.0 SW 22 35 12 19 1009.9 1009.0 0.0
22/03:30pm 35.9 31.0 4.2 14 17.0 WSW 19 24 10 13 1010.2 1009.3 0.0
22/03:00pm 35.7 29.8 4.1 14 16.9 W 24 30 13 16 1010.4 1009.6 0.0
22/02:30pm 36.5 32.1 4.7 14 17.2 WSW 17 26 9 14 1010.5 1009.7 0.0
22/02:00pm 36.3 31.9 4.6 14 17.2 NW 17 20 9 11 1010.6 1009.8 0.0
22/01:30pm 35.9 30.1 4.2 14 17.0 W 24 35 13 19 1010.8 1010.0 0.0
22/01:00pm 35.8 30.0 6.1 16 16.4 NW 26 52 14 28 1011.3 1010.5 0.0
22/12:55pm 35.7 29.1 4.1 14 16.9 NW 28 52 15 28 1011.2 1010.4 0.0
22/12:30pm 34.8 30.5 5.3 16 16.0 WNW 17 28 9 15 1011.6 1010.8 0.0
22/12:00pm 34.9 29.8 6.2 17 15.8 WNW 22 32 12 17 1011.8 1011.0 0.0
22/11:30am 33.7 29.4 6.9 19 14.8 W 19 28 10 15 1012.0 1011.2 0.0
22/11:00am 32.7 29.7 7.5 21 14.0 NNW 13 24 7 13 1012.0 1011.2 0.0
22/10:30am 31.8 28.8 7.5 22 13.4 NNW 13 28 7 15 1012.3 1011.5 0.0
22/10:00am 30.8 27.8 7.9 24 12.7 N 13 20 7 11 1012.5 1011.7 0.0
22/09:30am 29.4 27.1 9.0 28 11.4 NNE 11 17 6 9 1013.0 1012.2 0.0
22/09:00am 27.9 25.5 8.7 30 10.6 NNE 11 15 6 8 1013.1 1012.3 0.0
22/08:30am 26.2 24.4 9.5 35 9.3 N 9 13 5 7 1013.0 1012.2 0.0
22/08:00am 23.3 21.6 10.0 43 7.3 NE 9 15 5 8 1012.8 1012.0 0.0
22/07:30am 19.7 18.1 10.1 54 5.2 NE 9 11 5 6 1012.6 1011.8 0.0
22/07:00am 17.5 17.7 10.4 63 3.8 CALM 0 0 0 0 1012.5 1011.7 0.0
22/06:30am 15.2 14.5 10.2 72 2.6 ESE 4 7 2 4 1012.2 1011.4 0.0
22/06:00am 13.8 13.9 10.0 78 2.0 CALM 0 0 0 0 1011.8 1011.0 0.0
22/05:30am 14.3 13.3 10.3 77 2.1 E 6 7 3 4 1011.3 1010.5 0.0
22/05:00am 14.6 12.9 10.0 74 2.4 SSE 9 11 5 6 1010.8 1010.0 0.0
22/04:30am 15.0 15.0 9.8 71 2.7 CALM 0 0 0 0 1010.9 1010.1 0.0
22/04:00am 15.6 14.8 9.5 67 3.2 S 4 6 2 3 1011.1 1010.3 0.0
22/03:30am 16.0 14.8 9.4 65 3.5 S 6 7 3 4 1011.2 1010.4 0.0
22/03:00am 16.1 14.9 9.5 65 3.5 E 6 6 3 3 1011.3 1010.5 0.0
22/02:30am 15.7 15.6 9.6 67 3.2 CALM 0 0 0 0 1011.3 1010.5 0.0
22/02:00am 16.9 16.3 9.1 60 4.1 E 2 7 1 4 1011.6 1010.8 0.0
22/01:30am 17.8 16.3 9.2 57 4.5 E 7 9 4 5 1011.6 1010.8 0.0
22/01:00am 17.3 17.4 10.0 62 3.9 CALM 0 0 0 0 1011.8 1011.0 0.0
22/12:30am 18.1 17.8 10.2 60 4.3 E 2 6 1 3 1012.1 1011.3 0.0
22/12:00am 19.5 19.6 10.0 54 5.1 CALM 0 0 0 0 1012.1 1011.3 0.0
 
Date/Time
EDT
Temp
°C
App
Temp
°C
Dew
Point
Rel
Hum
%
Delta-T
°C
Wind Press
QNH
hPa
Press
MSL
hPa
Rain
since 9 am
mm
Dir
 
Spd
km/h
Gust
km/h
Spd
kts
Gust
kts
21/11:30pm 19.3 18.2 9.8 54 5.1 ESE 6 7 3 4 1012.2 1011.4 0.0
21/11:00pm 20.7 19.0 8.4 45 6.5 S 7 9 4 5 1012.1 1011.3 0.0
21/10:30pm 22.1 19.6 8.2 41 7.4 SSW 11 13 6 7 1012.0 1011.2 0.0
21/10:00pm 22.7 20.2 8.4 40 7.7 SSW 11 13 6 7 1011.9 1011.1 0.0
21/09:30pm 23.7 21.3 8.5 38 8.2 S 11 13 6 7 1011.7 1010.9 0.0
21/09:00pm 24.7 22.2 8.2 35 8.9 SSW 11 13 6 7 1011.4 1010.6 0.0
21/08:30pm 26.4 23.4 7.9 31 10.0 SSW 13 17 7 9 1011.0 1010.2 0.0
21/08:00pm 28.3 24.5 7.5 27 11.3 SSW 17 22 9 12 1010.6 1009.8 0.0
21/07:30pm 29.8 26.7 8.8 27 11.7 SW 15 20 8 11 1010.2 1009.3 0.0
21/07:00pm 31.7 28.2 8.7 24 13.0 WSW 17 24 9 13 1009.7 1008.8 0.0
21/06:30pm 32.4 28.1 8.0 22 13.6 WSW 20 32 11 17 1009.2 1008.3 0.0
21/06:00pm 33.0 29.0 9.1 23 13.7 SW 20 28 11 15 1008.8 1007.9 0.0
21/05:30pm 33.3 28.8 10.0 24 13.5 WSW 24 32 13 17 1008.6 1007.8 0.0
21/05:00pm 33.3 28.4 10.0 24 13.5 SW 26 43 14 23 1008.6 1007.8 0.0
21/04:30pm 33.7 28.4 9.7 23 13.9 SW 28 46 15 25 1008.6 1007.8 0.0
21/04:00pm 34.0 29.1 9.9 23 14.0 SW 26 37 14 20 1008.6 1007.8 0.0
21/03:30pm 34.1 29.1 9.4 22 14.2 W 26 35 14 19 1008.6 1007.8 0.0
21/03:00pm 34.2 29.0 8.8 21 14.5 WSW 26 37 14 20 1009.0 1008.1 0.0
21/02:30pm 33.3 29.2 10.0 24 13.5 WSW 22 30 12 16 1009.2 1008.3 0.0
21/02:00pm 32.8 28.7 10.2 25 13.1 SW 22 32 12 17 1009.4 1008.5 0.0
21/01:30pm 31.8 28.6 9.9 26 12.6 WSW 17 28 9 15 1009.6 1008.7 0.0
21/01:00pm 31.8 28.2 9.9 26 12.6 WSW 19 28 10 15 1009.9 1009.0 0.0
21/12:30pm 30.9 27.4 10.3 28 11.9 W 19 32 10 17 1010.1 1009.2 0.0
21/12:00pm 30.7 27.3 10.6 29 11.6 WSW 19 28 10 15 1010.4 1009.6 0.0
21/11:30am 30.3 27.7 10.8 30 11.3 S 15 37 8 20 1010.5 1009.7 0.0
21/11:00am 29.1 26.4 10.3 31 10.8 WSW 15 24 8 13 1010.7 1009.9 0.0
21/10:30am 29.2 26.5 10.3 31 10.8 SW 15 22 8 12 1010.8 1010.0 0.0
21/10:00am 28.8 24.7 10.0 31 10.7 WSW 22 30 12 16 1010.8 1010.0 0.0
21/09:30am 28.2 24.0 9.9 32 10.3 SSW 22 30 12 16 1010.6 1009.8 0.0
21/09:00am 27.2 23.1 10.0 34 9.7 SW 22 32 12 17 1010.5 1009.7 0.0
21/08:30am 26.5 23.1 10.6 37 9.0 SW 19 24 10 13 1010.4 1009.6 0.0
21/08:00am 24.7 22.5 10.9 42 7.8 SW 13 19 7 10 1010.0 1009.1 0.0
21/07:30am 22.6 21.9 10.1 45 6.9 SW 4 7 2 4 1009.5 1008.6 0.0

Other Formats:

Comma delimited format used in spreadsheet applications
http://www.bom.gov.au/fwo/IDN60801/IDN60801.94715.axf

JavaScript Object Notation format (JSON) in row-major order
http://www.bom.gov.au/fwo/IDN60801/IDN60801.94715.json